Time;durP1;ratioP1;P1;durP2;ratioP2;P2;SDS_P1;SDS_P2;PMS_P1;PMS_P2;Temp;Humidity;BMP_temperature;BMP_pressure;BME280_temperature;BME280_humidity;BME280_pressure;Samples;Min_cycle;Max_cycle;Signal;HPM_P1;HPM_P2
2024/04/12 00:01:17;;;;;;;;;;;;;;;11.16;70.63;94080.41;5412114;26;19929;-71
2024/04/12 00:03:43;;;;;;;;;;;;;;;11.08;71.49;94076.22;5399812;26;19940;-71
2024/04/12 00:06:15;;;;;;;;;;;;;;;11.03;71.47;94076.81;5400911;26;20411;-72
2024/04/12 00:08:46;;;;;;;;;;;;;;;10.99;71.29;94080.72;5409374;26;20369;-72
2024/04/12 00:11:12;;;;;;;;;;;;;;;10.99;71.52;94079.94;5402671;26;19929;-71
2024/04/12 00:13:41;;;;;;;;;;;;;;;10.96;72.07;94087.06;5412361;26;19998;-71
2024/04/12 00:16:09;;;;;;;;;;;;;;;10.94;73.13;94077.94;5404561;26;19941;-72
2024/04/12 00:18:36;;;;;;;;;;;;;;;10.81;74.61;94078.66;5401046;26;19928;-72
2024/04/12 00:21:01;;;;;;;;;;;;;;;10.70;75.50;94080.00;5406608;26;20390;-72
2024/04/12 00:23:30;;;;;;;;;;;;;;;10.69;75.20;94091.22;5405728;26;19929;-72
2024/04/12 00:25:59;;;;;;;;;;;;;;;10.60;75.93;94088.00;5405828;26;19929;-72
2024/04/12 00:28:26;;;;;;;;;;;;;;;10.51;76.08;94087.34;5409595;26;19928;-72
2024/04/12 00:30:51;;;;;;;;;;;;;;;10.59;75.85;94088.22;5411134;26;19956;-72
2024/04/12 00:33:19;;;;;;;;;;;;;;;10.59;74.88;94083.84;5411089;26;19929;-71
2024/04/12 00:35:54;;;;;;;;;;;;;;;10.70;74.46;94082.56;5402810;26;19941;-72
2024/04/12 00:38:23;;;;;;;;;;;;;;;10.66;74.45;94079.53;5407845;26;19952;-72
2024/04/12 00:40:52;;;;;;;;;;;;;;;10.69;75.24;94078.38;5405918;26;19929;-72
2024/04/12 00:43:18;;;;;;;;;;;;;;;10.47;75.38;94068.19;5403033;26;19955;-71
2024/04/12 00:45:43;;;;;;;;;;;;;;;10.53;74.68;94092.31;5406995;26;20732;-71
2024/04/12 00:48:09;;;;;;;;;;;;;;;10.46;75.14;94091.50;5402781;26;19929;-72
2024/04/12 00:50:37;;;;;;;;;;;;;;;10.31;76.51;94091.53;5411735;26;19929;-72
2024/04/12 00:53:09;;;;;;;;;;;;;;;10.33;75.86;94092.16;5407692;26;19929;-71
2024/04/12 00:55:35;;;;;;;;;;;;;;;10.26;76.04;94100.59;5407531;26;19969;-72
2024/04/12 00:58:00;;;;;;;;;;;;;;;10.21;76.41;94097.78;5408066;26;19929;-71
2024/04/12 01:00:35;;;;;;;;;;;;;;;10.15;76.61;94089.03;5401190;26;19936;-72
2024/04/12 01:03:05;;;;;;;;;;;;;;;10.18;76.57;94092.22;5410902;26;19995;-72
2024/04/12 01:05:32;;;;;;;;;;;;;;;10.11;76.80;94087.03;5409265;26;19944;-72
2024/04/12 01:08:00;;;;;;;;;;;;;;;10.12;76.85;94097.13;5398587;26;19944;-72
2024/04/12 01:10:25;;;;;;;;;;;;;;;10.06;77.32;94091.91;5411110;26;19928;-72
2024/04/12 01:12:55;;;;;;;;;;;;;;;10.00;76.85;94098.59;5411062;26;19937;-72
2024/04/12 01:15:20;;;;;;;;;;;;;;;9.94;77.50;94104.44;5405990;26;19972;-73
2024/04/12 01:17:46;;;;;;;;;;;;;;;9.83;77.89;94103.97;5404737;26;19936;-73
2024/04/12 01:20:11;;;;;;;;;;;;;;;9.75;77.89;94110.00;5410926;26;19998;-72
2024/04/12 01:22:36;;;;;;;;;;;;;;;9.72;78.29;94099.31;5401541;26;20269;-73
2024/04/12 01:25:05;;;;;;;;;;;;;;;9.75;78.72;94093.81;5406523;26;19980;-72
2024/04/12 01:27:34;;;;;;;;;;;;;;;9.83;77.80;94096.28;5398364;26;19929;-73
2024/04/12 01:30:00;;;;;;;;;;;;;;;9.74;78.21;94089.66;5409039;26;20446;-72
2024/04/12 01:32:26;;;;;;;;;;;;;;;9.77;78.38;94104.69;5409153;26;19940;-72
2024/04/12 01:34:52;;;;;;;;;;;;;;;9.79;78.31;94099.38;5410573;26;21356;-72
2024/04/12 01:37:21;;;;;;;;;;;;;;;9.78;78.95;94095.22;5410799;26;20001;-72
2024/04/12 01:39:46;;;;;;;;;;;;;;;9.78;79.08;94098.59;5406919;26;19929;-72
2024/04/12 01:42:13;;;;;;;;;;;;;;;9.80;78.42;94100.94;5410493;26;19936;-72
2024/04/12 01:44:38;;;;;;;;;;;;;;;9.75;78.79;94104.88;5409305;26;19933;-73
2024/04/12 01:47:04;;;;;;;;;;;;;;;9.74;79.53;94110.19;5399546;26;20207;-72
2024/04/12 01:49:33;;;;;;;;;;;;;;;9.82;78.65;94099.00;5406950;26;19998;-72
2024/04/12 01:51:59;;;;;;;;;;;;;;;9.84;78.37;94087.59;5400132;26;20246;-72
2024/04/12 01:54:25;;;;;;;;;;;;;;;9.76;77.96;94101.34;5399100;26;19936;-72
2024/04/12 01:56:50;;;;;;;;;;;;;;;9.76;78.43;94092.81;5403565;26;19930;-72
2024/04/12 01:59:20;;;;;;;;;;;;;;;9.69;78.99;94097.91;5399355;26;19945;-72
2024/04/12 02:01:46;;;;;;;;;;;;;;;9.62;78.76;94100.41;5401072;26;20000;-72
2024/04/12 02:04:15;;;;;;;;;;;;;;;9.56;79.86;94096.00;5403485;26;19936;-72
2024/04/12 02:06:42;;;;;;;;;;;;;;;9.59;79.21;94099.97;5401689;26;19929;-72
2024/04/12 02:09:13;;;;;;;;;;;;;;;9.53;80.35;94096.34;5408967;26;19929;-72
2024/04/12 02:11:39;;;;;;;;;;;;;;;9.51;79.72;94097.50;5408370;26;19940;-72
2024/04/12 02:14:04;;;;;;;;;;;;;;;9.50;80.38;94101.84;5405520;26;19936;-72
2024/04/12 02:16:31;;;;;;;;;;;;;;;9.43;79.97;94101.78;5405154;26;19929;-72
2024/04/12 02:18:56;;;;;;;;;;;;;;;9.41;81.13;94098.59;5407611;26;19936;-72
2024/04/12 02:21:22;;;;;;;;;;;;;;;9.43;80.49;94104.34;5403440;26;19953;-72
2024/04/12 02:23:48;;;;;;;;;;;;;;;9.41;81.38;94108.06;5406082;26;19940;-72
2024/04/12 02:26:15;;;;;;;;;;;;;;;9.44;80.29;94110.28;5407997;26;19937;-72
2024/04/12 02:28:42;;;;;;;;;;;;;;;9.40;81.80;94107.25;5406101;26;19940;-72
2024/04/12 02:31:10;;;;;;;;;;;;;;;9.38;82.27;94105.84;5408075;26;19936;-72
2024/04/12 02:33:35;;;;;;;;;;;;;;;9.30;82.55;94104.19;5408787;26;19933;-72
2024/04/12 02:36:37;;;;;;;;;;;;;;;9.28;81.63;94106.94;5408006;26;19933;-71
2024/04/12 02:38:56;;;;;;;;;;;;;;;9.19;83.38;94108.00;5399451;26;19929;-71
2024/04/12 02:41:22;;;;;;;;;;;;;;;9.03;85.85;94112.31;5404709;26;20376;-72
2024/04/12 02:43:55;;;;;;;;;;;;;;;9.04;84.29;94102.88;5407117;26;19929;-72
2024/04/12 02:46:22;;;;;;;;;;;;;;;9.07;83.57;94107.63;5403525;26;19929;-72
2024/04/12 02:48:48;;;;;;;;;;;;;;;9.12;82.82;94115.59;5406708;26;19998;-72
2024/04/12 02:51:14;;;;;;;;;;;;;;;9.13;83.74;94109.50;5407856;26;19929;-72
2024/04/12 02:53:39;;;;;;;;;;;;;;;9.16;83.44;94110.94;5404507;26;20016;-71
2024/04/12 02:56:09;;;;;;;;;;;;;;;9.15;83.28;94115.25;5405338;26;19941;-71
2024/04/12 02:58:44;;;;;;;;;;;;;;;9.16;84.53;94111.69;5412934;26;19929;-72
2024/04/12 03:01:10;;;;;;;;;;;;;;;9.24;83.61;94115.94;5412087;26;19940;-72
2024/04/12 03:03:51;;;;;;;;;;;;;;;9.18;84.34;94111.53;5412133;26;19941;-71
2024/04/12 03:06:23;;;;;;;;;;;;;;;9.16;83.20;94116.84;5407395;26;20352;-71
2024/04/12 03:08:49;;;;;;;;;;;;;;;9.18;83.13;94114.09;5405958;26;19940;-72
2024/04/12 03:11:21;;;;;;;;;;;;;;;9.21;84.34;94108.59;5412840;26;19928;-72
2024/04/12 03:13:58;;;;;;;;;;;;;;;9.15;83.73;94110.13;5412992;26;20360;-71
2024/04/12 03:16:24;;;;;;;;;;;;;;;9.09;84.54;94111.59;5407670;26;20001;-71
2024/04/12 03:18:51;;;;;;;;;;;;;;;8.96;85.09;94108.88;5412801;26;19937;-71
2024/04/12 03:21:30;;;;;;;;;;;;;;;8.91;85.09;94108.63;5407190;26;19945;-71
2024/04/12 03:23:57;;;;;;;;;;;;;;;8.82;86.28;94108.72;5410351;26;19936;-71
2024/04/12 03:26:23;;;;;;;;;;;;;;;8.94;84.95;94110.84;5406748;26;19937;-72
2024/04/12 03:28:49;;;;;;;;;;;;;;;8.95;85.15;94120.13;5410910;26;19936;-72
2024/04/12 03:31:17;;;;;;;;;;;;;;;8.62;88.19;94087.94;5409402;26;19929;-72
2024/04/12 03:33:43;;;;;;;;;;;;;;;8.76;88.68;94103.50;5409929;26;19929;-72
2024/04/12 03:36:53;;;;;;;;;;;;;;;8.65;88.49;94105.50;5406285;26;19933;-72
2024/04/12 03:41:51;;;;;;;;;;;;;;;8.65;88.00;94120.06;5412365;26;19929;-72
2024/04/12 03:44:18;;;;;;;;;;;;;;;8.67;87.57;94121.50;5412920;26;19929;-72
2024/04/12 03:46:50;;;;;;;;;;;;;;;8.64;87.18;94123.59;5397976;26;20374;-71
2024/04/12 03:49:20;;;;;;;;;;;;;;;8.60;86.82;94124.94;5409683;26;19940;-71
2024/04/12 03:51:47;;;;;;;;;;;;;;;8.61;86.64;94124.75;5408679;26;19940;-71
2024/04/12 03:54:18;;;;;;;;;;;;;;;8.63;86.54;94127.16;5403356;26;20372;-71
2024/04/12 03:56:50;;;;;;;;;;;;;;;8.52;87.14;94128.38;5407980;26;20348;-71
2024/04/12 03:59:19;;;;;;;;;;;;;;;8.48;87.96;94133.00;5412392;26;19997;-72
2024/04/12 04:01:45;;;;;;;;;;;;;;;8.40;89.32;94131.31;5409701;26;19929;-72
2024/04/12 04:04:19;;;;;;;;;;;;;;;8.45;88.29;94135.09;5406163;26;19936;-72
2024/04/12 04:06:46;;;;;;;;;;;;;;;8.42;89.58;94142.19;5409882;26;19935;-71
2024/04/12 04:09:12;;;;;;;;;;;;;;;8.47;88.37;94146.00;5406383;26;19941;-71
2024/04/12 04:11:42;;;;;;;;;;;;;;;8.47;88.53;94153.69;5409934;26;19998;-71
2024/04/12 04:14:13;;;;;;;;;;;;;;;8.48;89.16;94148.34;5405382;26;19962;-71
2024/04/12 04:16:39;;;;;;;;;;;;;;;8.54;88.08;94150.28;5407257;26;20067;-71
2024/04/12 04:19:05;;;;;;;;;;;;;;;8.53;88.84;94153.78;5412469;26;19941;-72
2024/04/12 04:21:33;;;;;;;;;;;;;;;8.52;89.08;94146.31;5407262;26;20516;-71
2024/04/12 04:24:08;;;;;;;;;;;;;;;8.55;89.61;94153.63;5431508;26;19928;-71
2024/04/12 04:26:34;;;;;;;;;;;;;;;8.58;88.12;94160.97;5417448;26;19929;-71
2024/04/12 04:29:00;;;;;;;;;;;;;;;8.62;88.31;94151.97;5417294;26;19936;-71
2024/04/12 04:31:26;;;;;;;;;;;;;;;8.61;88.68;94154.72;5415119;26;19929;-72
2024/04/12 04:33:57;;;;;;;;;;;;;;;8.59;89.09;94156.63;5416813;26;20261;-72
2024/04/12 04:36:24;;;;;;;;;;;;;;;8.69;88.82;94154.63;5422519;26;19936;-71
2024/04/12 04:38:49;;;;;;;;;;;;;;;8.70;87.30;94163.88;5417064;26;20419;-72
2024/04/12 04:41:19;;;;;;;;;;;;;;;8.74;86.74;94156.69;5415276;26;19929;-71
2024/04/12 04:43:46;;;;;;;;;;;;;;;8.77;87.68;94158.88;5439901;26;20345;-72
2024/04/12 04:46:29;;;;;;;;;;;;;;;8.81;87.05;94160.91;5415354;26;19930;-72
2024/04/12 04:48:55;;;;;;;;;;;;;;;8.88;87.08;94161.00;5415116;26;19933;-72
2024/04/12 04:51:22;;;;;;;;;;;;;;;8.98;87.16;94165.09;5413168;26;20319;-72
2024/04/12 04:53:52;;;;;;;;;;;;;;;9.00;88.87;94163.13;5411754;26;19937;-72
2024/04/12 04:56:24;;;;;;;;;;;;;;;9.06;88.01;94160.69;5411703;26;19976;-72
2024/04/12 04:58:50;;;;;;;;;;;;;;;9.17;87.60;94163.78;5419983;26;19936;-72
2024/04/12 05:01:17;;;;;;;;;;;;;;;9.26;88.96;94164.47;5411271;26;19941;-71
2024/04/12 05:03:43;;;;;;;;;;;;;;;9.35;87.74;94169.34;5432402;26;19928;-71
2024/04/12 05:06:08;;;;;;;;;;;;;;;9.46;86.31;94157.84;5422588;26;19955;-72
2024/04/12 05:08:35;;;;;;;;;;;;;;;9.61;86.41;94162.94;5403750;26;20295;-72
2024/04/12 05:11:05;;;;;;;;;;;;;;;9.78;85.88;94165.31;5412942;26;20371;-72
2024/04/12 05:13:37;;;;;;;;;;;;;;;9.93;86.21;94167.81;5412791;26;19995;-72
2024/04/12 05:16:09;;;;;;;;;;;;;;;10.07;83.98;94163.63;5405558;26;19929;-71
2024/04/12 05:18:36;;;;;;;;;;;;;;;10.20;84.04;94155.25;5433675;26;19928;-71
2024/04/12 05:21:03;;;;;;;;;;;;;;;10.41;82.84;94158.78;5445715;26;19929;-72
2024/04/12 05:23:29;;;;;;;;;;;;;;;10.55;81.70;94160.50;5408349;26;19959;-72
2024/04/12 05:25:54;;;;;;;;;;;;;;;10.68;81.36;94164.97;5410313;26;19930;-72
2024/04/12 05:28:20;;;;;;;;;;;;;;;10.81;80.38;94161.69;5449188;26;20359;-72
2024/04/12 05:30:46;;;;;;;;;;;;;;;10.99;81.14;94159.63;5406705;26;19940;-72
2024/04/12 05:33:12;;;;;;;;;;;;;;;11.17;80.24;94166.84;5424001;26;20439;-72
2024/04/12 05:35:39;;;;;;;;;;;;;;;11.34;80.57;94167.34;5412096;26;19959;-72
2024/04/12 05:38:07;;;;;;;;;;;;;;;11.55;79.74;94171.59;5429059;26;19936;-72
2024/04/12 05:40:41;;;;;;;;;;;;;;;11.72;80.38;94164.31;5423259;26;19928;-72
2024/04/12 05:43:15;;;;;;;;;;;;;;;11.90;80.88;94166.38;5412790;26;19932;-71
2024/04/12 05:45:40;;;;;;;;;;;;;;;12.11;78.55;94156.16;5409641;26;19953;-71
2024/04/12 05:48:12;;;;;;;;;;;;;;;12.33;79.98;94159.38;5408393;26;19941;-71
2024/04/12 05:50:39;;;;;;;;;;;;;;;12.52;76.92;94154.41;5402180;26;19929;-71
2024/04/12 05:53:05;;;;;;;;;;;;;;;12.78;76.44;94156.19;5440849;26;19935;-72
2024/04/12 05:55:31;;;;;;;;;;;;;;;13.01;73.52;94149.81;5396337;26;19930;-71
2024/04/12 05:58:00;;;;;;;;;;;;;;;13.29;73.50;94158.28;5422170;26;20365;-72
2024/04/12 06:00:25;;;;;;;;;;;;;;;13.56;72.93;94153.09;5412188;26;19937;-72
2024/04/12 06:02:51;;;;;;;;;;;;;;;13.85;69.36;94158.72;5423131;26;20786;-72
2024/04/12 06:05:18;;;;;;;;;;;;;;;13.95;70.44;94160.84;5441044;26;19928;-71
2024/04/12 06:07:47;;;;;;;;;;;;;;;14.13;69.66;94157.56;5437288;26;20357;-72
2024/04/12 06:10:13;;;;;;;;;;;;;;;14.44;68.78;94163.72;5396836;26;19998;-72
2024/04/12 06:12:41;;;;;;;;;;;;;;;14.57;68.79;94153.31;5437927;26;19928;-71
2024/04/12 06:15:08;;;;;;;;;;;;;;;14.80;67.85;94161.50;5411212;26;19928;-71
2024/04/12 06:17:34;;;;;;;;;;;;;;;15.00;66.79;94158.72;5406688;26;19929;-71
2024/04/12 06:20:00;;;;;;;;;;;;;;;14.94;67.04;94155.22;5410915;26;20290;-71
2024/04/12 06:22:31;;;;;;;;;;;;;;;15.12;65.58;94160.59;5410774;26;19939;-72
2024/04/12 06:25:01;;;;;;;;;;;;;;;15.35;65.50;94155.63;5410182;26;20289;-71
2024/04/12 06:27:29;;;;;;;;;;;;;;;15.42;64.78;94157.34;5421504;26;19929;-72
2024/04/12 06:29:59;;;;;;;;;;;;;;;15.86;63.39;94154.63;5409712;26;19929;-72
2024/04/12 06:32:26;;;;;;;;;;;;;;;16.09;63.72;94150.56;5406030;26;19929;-72
2024/04/12 06:34:52;;;;;;;;;;;;;;;16.12;62.45;94155.31;5408856;26;20257;-72
2024/04/12 06:37:21;;;;;;;;;;;;;;;16.23;62.62;94159.75;5415901;26;19932;-72
2024/04/12 06:39:46;;;;;;;;;;;;;;;16.37;62.37;94151.75;5410142;26;19929;-72
2024/04/12 06:42:12;;;;;;;;;;;;;;;16.43;63.30;94148.28;5410629;26;19936;-72
2024/04/12 06:44:37;;;;;;;;;;;;;;;16.83;61.26;94157.25;5415070;26;19936;-71
2024/04/12 06:47:05;;;;;;;;;;;;;;;17.00;61.81;94143.59;5424824;26;20269;-71
2024/04/12 06:49:32;;;;;;;;;;;;;;;17.13;60.85;94143.38;5413257;26;19948;-71
2024/04/12 06:52:10;;;;;;;;;;;;;;;16.77;62.34;94148.56;5427668;26;19929;-71
2024/04/12 06:54:42;;;;;;;;;;;;;;;17.32;61.64;94149.22;5416555;26;20031;-72
2024/04/12 06:57:08;;;;;;;;;;;;;;;17.47;60.94;94142.78;5431043;26;19947;-72
2024/04/12 06:59:36;;;;;;;;;;;;;;;17.63;60.37;94149.06;5426006;26;19939;-72
2024/04/12 07:02:03;;;;;;;;;;;;;;;17.89;61.36;94141.75;5413374;26;19936;-72
2024/04/12 07:04:28;;;;;;;;;;;;;;;18.21;61.14;94136.09;5430292;26;19936;-72
2024/04/12 07:06:56;;;;;;;;;;;;;;;18.06;58.04;94152.22;5414903;26;19953;-72
2024/04/12 07:09:22;;;;;;;;;;;;;;;18.06;57.64;94141.84;5431071;26;20471;-71
2024/04/12 07:11:51;;;;;;;;;;;;;;;18.06;56.77;94148.81;5419597;26;19929;-72
2024/04/12 07:14:17;;;;;;;;;;;;;;;18.22;52.87;94145.47;5427392;26;19928;-72
2024/04/12 07:16:43;;;;;;;;;;;;;;;18.49;52.91;94147.47;5407010;26;19953;-72
2024/04/12 07:19:09;;;;;;;;;;;;;;;18.65;51.81;94145.91;5402003;26;19957;-72
2024/04/12 07:21:37;;;;;;;;;;;;;;;18.78;51.29;94141.38;5404804;26;19937;-72
2024/04/12 07:24:06;;;;;;;;;;;;;;;18.86;50.35;94137.59;5430660;26;19928;-71
2024/04/12 07:26:31;;;;;;;;;;;;;;;19.05;50.44;94132.94;5410651;26;19979;-72
2024/04/12 07:28:59;;;;;;;;;;;;;;;19.16;49.64;94136.50;5415714;26;19929;-72
2024/04/12 07:31:34;;;;;;;;;;;;;;;19.08;49.58;94135.09;5401794;26;19929;-72
2024/04/12 07:34:01;;;;;;;;;;;;;;;18.99;48.75;94144.28;5411546;26;19933;-72
2024/04/12 07:36:30;;;;;;;;;;;;;;;18.88;49.97;94133.72;5407976;26;19973;-72
2024/04/12 07:39:01;;;;;;;;;;;;;;;18.77;50.68;94134.63;5415850;26;20327;-72
2024/04/12 07:41:27;;;;;;;;;;;;;;;18.93;49.21;94123.41;5444513;26;19937;-72
2024/04/12 07:43:55;;;;;;;;;;;;;;;18.85;49.59;94131.63;5427291;26;19929;-71
2024/04/12 07:46:27;;;;;;;;;;;;;;;19.09;49.56;94123.63;5414336;26;20279;-72
2024/04/12 07:48:57;;;;;;;;;;;;;;;19.23;49.82;94124.06;5422237;26;19929;-72
2024/04/12 07:51:25;;;;;;;;;;;;;;;19.34;49.92;94114.56;5408953;26;19930;-72
2024/04/12 07:53:51;;;;;;;;;;;;;;;19.38;50.63;94068.00;5427721;26;20361;-73
2024/04/12 07:56:20;;;;;;;;;;;;;;;19.58;49.69;94124.75;5414121;26;19970;-72
2024/04/12 07:59:01;;;;;;;;;;;;;;;19.55;50.52;94117.41;5410805;26;19929;-72
2024/04/12 08:01:26;;;;;;;;;;;;;;;19.64;50.28;94129.00;5411944;26;19941;-72
2024/04/12 08:04:05;;;;;;;;;;;;;;;19.82;49.74;94119.28;5421632;26;20373;-72
2024/04/12 08:09:25;;;;;;;;;;;;;;;19.43;50.94;94122.75;5413584;26;20280;-72
2024/04/12 08:11:59;;;;;;;;;;;;;;;19.46;50.64;94120.47;5414918;26;20683;-72
2024/04/12 08:14:26;;;;;;;;;;;;;;;19.45;51.17;94120.69;5422379;26;19947;-72
2024/04/12 08:16:53;;;;;;;;;;;;;;;19.50;50.57;94124.13;5416778;26;19936;-72
2024/04/12 08:19:22;;;;;;;;;;;;;;;19.74;49.82;94123.91;5418349;26;19933;-72
2024/04/12 08:21:54;;;;;;;;;;;;;;;20.05;49.73;94117.44;5446195;26;19960;-72
2024/04/12 08:24:22;;;;;;;;;;;;;;;19.95;49.43;94120.72;5446835;26;20253;-72
2024/04/12 08:26:51;;;;;;;;;;;;;;;19.75;50.08;94122.88;5426948;26;19932;-72
2024/04/12 08:29:23;;;;;;;;;;;;;;;19.95;50.13;94111.06;5416409;26;19940;-72
2024/04/12 08:31:59;;;;;;;;;;;;;;;20.32;49.25;94120.00;5413474;26;20292;-72
2024/04/12 08:34:26;;;;;;;;;;;;;;;20.33;48.16;94121.63;5423666;26;20781;-72
2024/04/12 08:36:51;;;;;;;;;;;;;;;20.14;48.93;94119.34;5411595;26;20419;-72
2024/04/12 08:39:26;;;;;;;;;;;;;;;20.31;49.41;94118.44;5406968;26;19937;-72
2024/04/12 08:42:14;;;;;;;;;;;;;;;20.31;48.32;94115.84;5410830;26;19949;-72
2024/04/12 08:44:43;;;;;;;;;;;;;;;20.41;48.45;94110.72;5413884;26;19928;-72
2024/04/12 08:50:03;;;;;;;;;;;;;;;20.19;48.59;94110.00;5421908;26;20257;-72
2024/04/12 08:52:42;;;;;;;;;;;;;;;19.94;49.24;94116.53;5414303;26;19933;-72
2024/04/12 08:55:13;;;;;;;;;;;;;;;20.23;48.65;94106.63;5422773;26;19935;-72
2024/04/12 08:57:41;;;;;;;;;;;;;;;19.95;48.56;94102.47;5414322;26;19940;-71
2024/04/12 09:00:08;;;;;;;;;;;;;;;20.13;49.20;94104.75;5425098;26;19928;-72
2024/04/12 09:02:48;;;;;;;;;;;;;;;20.28;48.64;94108.53;5422684;26;19936;-71
2024/04/12 09:05:13;;;;;;;;;;;;;;;20.36;47.67;94102.84;5428126;26;19940;-72
2024/04/12 09:07:42;;;;;;;;;;;;;;;20.54;47.67;94100.88;5425338;26;20425;-72
2024/04/12 09:10:07;;;;;;;;;;;;;;;20.59;46.96;94100.16;5419933;26;19996;-71
2024/04/12 09:12:36;;;;;;;;;;;;;;;20.60;47.09;94102.47;5422318;26;19937;-72
2024/04/12 09:15:03;;;;;;;;;;;;;;;21.06;46.99;94098.63;5417757;26;19933;-72
2024/04/12 09:17:29;;;;;;;;;;;;;;;21.05;45.43;94099.66;5420573;26;19933;-72
2024/04/12 09:19:57;;;;;;;;;;;;;;;20.88;45.33;94100.59;5425744;26;19941;-72
2024/04/12 09:22:27;;;;;;;;;;;;;;;20.55;46.42;94087.59;5416551;26;19996;-72
2024/04/12 09:24:56;;;;;;;;;;;;;;;20.88;46.18;94090.16;5422806;26;19929;-72
2024/04/12 09:27:33;;;;;;;;;;;;;;;20.90;45.73;94089.91;5422858;26;20534;-72
2024/04/12 09:32:50;;;;;;;;;;;;;;;21.38;45.46;94087.25;5417725;26;19935;-72
2024/04/12 09:33:00;;;;;;;;;;;;;;;21.65;44.52;94090.78;5422980;26;20457;-72
2024/04/12 09:35:27;;;;;;;;;;;;;;;21.63;44.02;94085.78;5419206;26;19929;-72
2024/04/12 09:38:01;;;;;;;;;;;;;;;21.48;44.51;94079.47;5421445;26;19940;-72
2024/04/12 09:40:34;;;;;;;;;;;;;;;21.65;44.42;94080.31;5416398;26;19929;-72
2024/04/12 09:45:45;;;;;;;;;;;;;;;21.74;44.65;94078.78;5417920;26;19941;-72
2024/04/12 10:37:59;;;;;;;;;;;;;;;22.21;42.77;94048.22;5407962;26;19936;-72
2024/04/12 10:40:28;;;;;;;;;;;;;;;22.31;42.22;94042.19;5408901;26;19929;-72
2024/04/12 10:42:55;;;;;;;;;;;;;;;22.27;40.86;94041.16;5407690;26;19953;-71
2024/04/12 10:45:21;;;;;;;;;;;;;;;21.92;40.50;94040.09;5433965;26;20345;-71
2024/04/12 10:47:47;;;;;;;;;;;;;;;22.22;39.99;94028.84;5410967;26;19929;-72
2024/04/12 10:50:19;;;;;;;;;;;;;;;22.40;39.15;94026.75;5410743;26;20354;-71
2024/04/12 10:52:45;;;;;;;;;;;;;;;22.64;39.32;94027.00;5408637;26;20039;-72
2024/04/12 10:55:11;;;;;;;;;;;;;;;22.46;39.83;94010.00;5408267;26;20352;-72
2024/04/12 10:57:40;;;;;;;;;;;;;;;22.90;40.60;94011.22;5411135;26;19936;-72
2024/04/12 11:00:07;;;;;;;;;;;;;;;22.86;39.10;94012.03;5408985;26;19937;-71
2024/04/12 11:02:33;;;;;;;;;;;;;;;22.92;38.55;94016.19;5408707;26;19931;-71
2024/04/12 11:07:43;;;;;;;;;;;;;;;22.73;39.71;94002.91;5415564;26;19936;-72
2024/04/12 11:10:22;;;;;;;;;;;;;;;22.80;40.76;94009.44;5404696;26;19933;-71
2024/04/12 11:12:51;;;;;;;;;;;;;;;23.04;39.93;94000.16;5405784;26;19937;-72
2024/04/12 11:31:39;;;;;;;;;;;;;;;23.44;39.15;93989.78;5414734;26;20023;-72
2024/04/12 11:34:06;;;;;;;;;;;;;;;23.38;39.32;93991.66;5408283;26;19928;-72
2024/04/12 11:36:33;;;;;;;;;;;;;;;23.80;36.83;93992.19;5431515;26;19929;-72
2024/04/12 11:39:17;;;;;;;;;;;;;;;23.36;36.46;93988.50;5412376;26;19933;-71
2024/04/12 11:41:44;;;;;;;;;;;;;;;23.55;36.88;93980.03;5414063;26;19997;-72
2024/04/12 11:44:10;;;;;;;;;;;;;;;23.60;36.93;93983.38;5445764;26;19928;-71
2024/04/12 11:46:35;;;;;;;;;;;;;;;23.72;36.14;93983.06;5433935;26;19937;-72
2024/04/12 11:49:07;;;;;;;;;;;;;;;23.62;37.17;93975.25;5408653;26;19928;-72
2024/04/12 11:51:33;;;;;;;;;;;;;;;23.70;37.73;93981.75;5429247;26;19928;-72
2024/04/12 11:53:59;;;;;;;;;;;;;;;23.19;38.69;93984.38;5419562;26;19929;-72
2024/04/12 11:56:24;;;;;;;;;;;;;;;23.43;38.39;93975.91;5413477;26;20384;-72
2024/04/12 11:58:51;;;;;;;;;;;;;;;23.09;37.90;93982.59;5414318;26;20272;-71
2024/04/12 12:01:18;;;;;;;;;;;;;;;23.41;37.03;93979.84;5419766;26;19929;-72
2024/04/12 12:03:43;;;;;;;;;;;;;;;23.32;36.86;93972.53;5420372;26;19943;-72
2024/04/12 12:06:08;;;;;;;;;;;;;;;23.40;36.00;93965.94;5424442;26;19928;-72
2024/04/12 12:08:40;;;;;;;;;;;;;;;23.64;36.08;93960.00;5410712;26;19929;-72
2024/04/12 12:11:06;;;;;;;;;;;;;;;24.01;36.35;93968.38;5436138;26;20527;-72
2024/04/12 12:13:32;;;;;;;;;;;;;;;23.56;35.95;93966.63;5417473;26;19929;-72
2024/04/12 12:15:58;;;;;;;;;;;;;;;23.75;36.50;93960.72;5419841;26;19960;-72
2024/04/12 12:18:27;;;;;;;;;;;;;;;23.71;36.06;93954.47;5413555;26;19928;-72
2024/04/12 12:20:56;;;;;;;;;;;;;;;23.58;36.38;93948.00;5417418;26;19936;-72
2024/04/12 12:23:24;;;;;;;;;;;;;;;23.70;35.93;93956.28;5407708;26;19941;-72
2024/04/12 12:25:56;;;;;;;;;;;;;;;23.63;35.89;93958.44;5417497;26;20006;-72
2024/04/12 12:28:23;;;;;;;;;;;;;;;24.10;35.31;93958.91;5414361;26;20371;-72
2024/04/12 12:30:54;;;;;;;;;;;;;;;23.93;34.89;93954.00;5417848;26;19982;-72
2024/04/12 12:33:24;;;;;;;;;;;;;;;24.07;35.73;93940.28;5391804;26;19929;-72
2024/04/12 12:35:50;;;;;;;;;;;;;;;23.68;35.11;93940.06;5443000;26;19937;-72
2024/04/12 12:38:16;;;;;;;;;;;;;;;24.13;35.08;93939.19;5414362;26;19933;-72
2024/04/12 12:40:41;;;;;;;;;;;;;;;24.07;34.73;93935.78;5415679;26;20617;-72
2024/04/12 12:43:10;;;;;;;;;;;;;;;24.00;35.38;93943.22;5431425;26;19937;-72
2024/04/12 12:45:36;;;;;;;;;;;;;;;24.26;34.98;93935.13;5443631;26;19936;-72
2024/04/12 12:48:02;;;;;;;;;;;;;;;24.34;35.78;93934.50;5411651;26;20264;-72
2024/04/12 12:50:29;;;;;;;;;;;;;;;24.33;35.08;93929.53;5413493;26;19929;-72
2024/04/12 12:52:55;;;;;;;;;;;;;;;24.49;35.12;93932.78;5412665;26;19973;-72
2024/04/12 12:55:23;;;;;;;;;;;;;;;24.60;35.42;93930.81;5422419;26;19932;-72
2024/04/12 12:57:49;;;;;;;;;;;;;;;24.51;34.73;93925.41;5444480;26;19972;-72
2024/04/12 13:00:20;;;;;;;;;;;;;;;24.81;34.04;93924.28;5444943;26;19935;-72
2024/04/12 13:02:50;;;;;;;;;;;;;;;24.60;34.56;93920.31;5411508;26;19929;-72
2024/04/12 13:05:15;;;;;;;;;;;;;;;24.87;33.98;93924.22;5399944;26;19935;-72
2024/04/12 13:07:40;;;;;;;;;;;;;;;24.50;34.09;93914.13;5425794;26;19929;-72
2024/04/12 13:10:12;;;;;;;;;;;;;;;24.94;33.99;93920.19;5414786;26;20370;-72
2024/04/12 13:12:38;;;;;;;;;;;;;;;24.85;34.11;93905.34;5423280;26;19929;-72
2024/04/12 13:15:04;;;;;;;;;;;;;;;24.97;34.41;93910.19;5423343;26;19929;-72
2024/04/12 13:17:36;;;;;;;;;;;;;;;25.04;34.04;93908.75;5416547;26;19960;-72
2024/04/12 13:20:05;;;;;;;;;;;;;;;25.22;33.79;93909.03;5417207;26;20383;-72
2024/04/12 13:22:32;;;;;;;;;;;;;;;24.05;35.04;93911.66;5401754;26;19930;-72
2024/04/12 13:24:57;;;;;;;;;;;;;;;23.45;34.75;93904.81;5413992;26;19936;-72
2024/04/12 13:27:23;;;;;;;;;;;;;;;23.37;35.32;93900.94;5392192;26;20239;-72
2024/04/12 13:29:49;;;;;;;;;;;;;;;22.94;36.25;93899.63;5414190;26;20788;-72
2024/04/12 13:32:14;;;;;;;;;;;;;;;23.44;37.25;93898.00;5415799;26;19939;-72
2024/04/12 13:34:39;;;;;;;;;;;;;;;23.74;35.80;93890.94;5419805;26;20348;-72
2024/04/12 13:37:08;;;;;;;;;;;;;;;23.70;35.44;93897.81;5414445;26;19968;-72
2024/04/12 13:39:36;;;;;;;;;;;;;;;23.91;35.09;93893.16;5419139;26;19981;-72
2024/04/12 13:42:03;;;;;;;;;;;;;;;24.11;33.31;93886.19;5419038;26;19937;-72
2024/04/12 13:52:42;;;;;;;;;;;;;;;24.38;34.08;93895.34;5417310;26;19998;-72
2024/04/12 13:55:10;;;;;;;;;;;;;;;24.47;34.12;93898.13;5412903;26;19937;-72
2024/04/12 13:57:38;;;;;;;;;;;;;;;23.90;35.03;93896.84;5412577;26;19929;-72
2024/04/12 14:00:09;;;;;;;;;;;;;;;23.16;35.34;93889.78;5410867;26;19929;-72
2024/04/12 14:02:35;;;;;;;;;;;;;;;23.32;35.97;93887.88;5438056;26;19929;-72
2024/04/12 14:05:02;;;;;;;;;;;;;;;23.05;36.52;93889.09;5432844;26;20774;-72
2024/04/12 14:07:33;;;;;;;;;;;;;;;23.01;36.61;93895.91;5436886;26;19929;-72
2024/04/12 14:10:01;;;;;;;;;;;;;;;22.93;35.45;93889.41;5418147;26;20374;-72
2024/04/12 14:12:27;;;;;;;;;;;;;;;23.17;36.08;93889.53;5418970;26;19934;-72
2024/04/12 14:14:52;;;;;;;;;;;;;;;23.47;35.60;93885.13;5409392;26;19933;-72
2024/04/12 14:17:19;;;;;;;;;;;;;;;23.58;36.10;93885.84;5417013;26;19929;-72
2024/04/12 14:19:46;;;;;;;;;;;;;;;23.74;37.17;93880.47;5429237;26;19939;-72
2024/04/12 14:22:11;;;;;;;;;;;;;;;24.02;37.04;93871.03;5420108;26;20005;-72
2024/04/12 14:27:20;;;;;;;;;;;;;;;24.21;35.05;93878.19;5439999;26;20441;-72